Time;durP1;ratioP1;P1;durP2;ratioP2;P2;SDS_P1;SDS_P2;PMS_P1;PMS_P2;Temp;Humidity;BMP_temperature;BMP_pressure;BME280_temperature;BME280_humidity;BME280_pressure;Samples;Min_cycle;Max_cycle;Signal;HPM_P1;HPM_P2
2021/09/07 00:00:16;;;;;;;15.40;7.70;;;409.90;2355.20;;;;;;5014180;28;20041;-79
2021/09/07 00:02:42;;;;;;;12.32;7.07;;;409.60;2355.20;;;;;;5013185;28;20092;-81
2021/09/07 00:05:10;;;;;;;12.88;7.07;;;409.60;2355.20;;;;;;5013754;28;20432;-82
2021/09/07 00:07:36;;;;;;;10.57;7.25;;;409.60;2355.20;;;;;;5013933;28;20050;-82
2021/09/07 00:10:03;;;;;;;11.75;7.55;;;409.60;2355.20;;;;;;5013900;28;20489;-79
2021/09/07 00:12:29;;;;;;;11.45;7.35;;;409.70;2355.20;;;;;;5013511;28;20036;-81
2021/09/07 00:14:55;;;;;;;14.93;6.55;;;409.70;2355.20;;;;;;5013886;28;20026;-81
2021/09/07 00:17:21;;;;;;;12.35;7.20;;;409.70;2355.20;;;;;;5013380;28;20478;-80
2021/09/07 00:19:47;;;;;;;12.27;7.22;;;384.80;2329.60;;;;;;5015195;28;20104;-79
2021/09/07 00:22:13;;;;;;;14.77;6.80;;;409.60;2355.20;;;;;;5013753;28;20114;-80
2021/09/07 00:24:39;;;;;;;13.68;7.25;;;409.60;2355.20;;;;;;5013390;28;20377;-81
2021/09/07 00:27:05;;;;;;;12.32;7.25;;;409.60;2355.20;;;;;;5013590;28;20525;-79
2021/09/07 00:29:31;;;;;;;14.65;7.43;;;384.80;2329.60;;;;;;5013507;28;20046;-78
2021/09/07 00:31:56;;;;;;;12.40;7.68;;;409.80;2355.20;;;;;;5013499;28;20524;-80
2021/09/07 00:34:22;;;;;;;16.17;9.07;;;409.80;2355.20;;;;;;5013528;28;20029;-81
2021/09/07 00:36:48;;;;;;;19.20;9.30;;;409.70;2355.20;;;;;;5014675;28;20367;-82
2021/09/07 00:39:15;;;;;;;14.82;8.00;;;384.90;2329.60;;;;;;5013515;28;20048;-77
2021/09/07 00:41:41;;;;;;;13.75;8.38;;;384.70;2329.60;;;;;;5013411;28;20030;-79
2021/09/07 00:44:13;;;;;;;13.55;8.18;;;384.80;2329.60;;;;;;5014851;28;20032;-79
2021/09/07 00:46:39;;;;;;;17.08;8.25;;;384.90;2329.60;;;;;;5012670;28;20033;-81
2021/09/07 00:49:04;;;;;;;14.93;8.30;;;384.30;2329.60;;;;;;5013278;28;20187;-81
2021/09/07 00:51:32;;;;;;;13.90;8.05;;;384.30;2329.60;;;;;;5012871;28;20037;-81
2021/09/07 00:53:59;;;;;;;13.27;7.50;;;384.50;2329.60;;;;;;5012899;28;20022;-79
2021/09/07 00:56:25;;;;;;;20.48;9.18;;;384.70;2329.60;;;;;;5013217;28;20034;-79
2021/09/07 00:58:52;;;;;;;13.15;8.07;;;384.40;2329.60;;;;;;5013039;28;20389;-80
2021/09/07 01:01:18;;;;;;;11.38;6.95;;;384.20;2329.60;;;;;;5013741;28;20440;-80
2021/09/07 01:03:44;;;;;;;15.50;7.63;;;384.20;2329.60;;;;;;5012936;28;20116;-79
2021/09/07 01:06:10;;;;;;;13.30;7.72;;;384.30;2329.60;;;;;;5013026;28;20034;-83
2021/09/07 01:08:38;;;;;;;14.13;7.88;;;384.10;2329.60;;;;;;5012717;28;20454;-79
2021/09/07 01:11:04;;;;;;;15.50;8.30;;;359.20;2329.60;;;;;;5012972;28;20022;-81
2021/09/07 01:13:29;;;;;;;12.20;7.70;;;384.60;2329.60;;;;;;5012849;28;20458;-79
2021/09/07 01:15:55;;;;;;;12.38;8.15;;;384.20;2329.60;;;;;;5012870;28;20393;-80
2021/09/07 01:18:21;;;;;;;12.38;7.55;;;384.20;2329.60;;;;;;5012820;28;20030;-79
2021/09/07 01:20:47;;;;;;;9.98;7.28;;;384.20;2329.60;;;;;;5012606;28;20026;-82
2021/09/07 01:23:13;;;;;;;12.32;7.65;;;384.00;2329.60;;;;;;5014151;28;20454;-78
2021/09/07 01:25:39;;;;;;;18.17;9.23;;;384.20;2329.60;;;;;;5012716;28;20144;-79
2021/09/07 01:28:07;;;;;;;11.23;8.82;;;384.20;2329.60;;;;;;5012848;28;20517;-79
2021/09/07 01:30:33;;;;;;;12.63;8.05;;;384.30;2329.60;;;;;;5012904;28;20075;-79
2021/09/07 01:32:59;;;;;;;14.73;7.30;;;384.30;2329.60;;;;;;5012697;28;20465;-79
2021/09/07 01:35:25;;;;;;;13.25;7.97;;;384.40;2329.60;;;;;;5012460;28;20092;-79
2021/09/07 01:37:51;;;;;;;12.77;8.05;;;359.30;2329.60;;;;;;5012612;28;20415;-80
2021/09/07 01:40:17;;;;;;;11.57;7.57;;;359.00;2329.60;;;;;;5012673;28;20034;-83
2021/09/07 01:42:43;;;;;;;11.32;7.90;;;359.20;2329.60;;;;;;5012427;28;20029;-79
2021/09/07 01:45:12;;;;;;;13.52;7.45;;;359.00;2329.60;;;;;;5012617;28;20026;-81
2021/09/07 01:47:39;;;;;;;12.25;7.85;;;359.10;2329.60;;;;;;5012588;28;20030;-81
2021/09/07 01:50:06;;;;;;;11.15;7.72;;;358.90;2329.60;;;;;;5012315;28;20347;-81
2021/09/07 01:52:32;;;;;;;19.50;7.47;;;358.80;2329.60;;;;;;5012086;28;20036;-78
2021/09/07 01:54:59;;;;;;;13.48;8.13;;;358.80;2329.60;;;;;;5012456;28;20030;-79
2021/09/07 01:57:25;;;;;;;11.40;7.63;;;358.90;2329.60;;;;;;5012135;28;20192;-81
2021/09/07 01:59:51;;;;;;;14.30;7.65;;;358.80;2329.60;;;;;;5013923;28;20026;-76
2021/09/07 02:02:17;;;;;;;15.40;8.15;;;358.90;2329.60;;;;;;5024600;28;20064;-79
2021/09/07 02:04:45;;;;;;;11.35;8.10;;;359.10;2329.60;;;;;;5027103;28;20022;-80
2021/09/07 02:07:14;;;;;;;15.18;8.18;;;359.10;2329.60;;;;;;5025710;28;20091;-79
2021/09/07 02:09:40;;;;;;;15.70;8.48;;;359.10;2329.60;;;;;;5025765;28;20030;-78
2021/09/07 02:12:07;;;;;;;13.88;8.20;;;358.90;2329.60;;;;;;5023888;28;20036;-79
2021/09/07 02:14:33;;;;;;;13.73;8.77;;;358.40;2329.60;;;;;;5026040;28;20541;-81
2021/09/07 02:16:59;;;;;;;13.90;8.80;;;333.60;2329.60;;;;;;5026540;28;20040;-81
2021/09/07 02:19:25;;;;;;;10.52;7.35;;;358.50;2329.60;;;;;;5026979;28;20468;-81
2021/09/07 02:21:51;;;;;;;13.88;7.97;;;333.60;2329.60;;;;;;5026567;28;20030;-81
2021/09/07 02:24:17;;;;;;;16.45;7.70;;;358.40;2329.60;;;;;;5023007;28;20025;-80
2021/09/07 02:26:43;;;;;;;12.32;7.60;;;333.70;2329.60;;;;;;5026342;28;20034;-78
2021/09/07 02:29:10;;;;;;;17.25;8.52;;;358.40;2329.60;;;;;;5029608;28;20069;-80
2021/09/07 02:31:36;;;;;;;15.20;7.95;;;358.50;2329.60;;;;;;5029522;28;20030;-81
2021/09/07 02:34:02;;;;;;;12.07;7.20;;;333.70;2329.60;;;;;;5026406;28;20447;-79
2021/09/07 02:36:28;;;;;;;12.25;7.97;;;333.70;2329.60;;;;;;5016198;28;20041;-83
2021/09/07 02:38:55;;;;;;;11.45;7.90;;;333.60;2329.60;;;;;;5015756;28;20041;-82
2021/09/07 02:41:22;;;;;;;9.63;7.40;;;333.70;2329.60;;;;;;5015909;28;20049;-80
2021/09/07 02:43:48;;;;;;;13.75;7.53;;;358.50;2329.60;;;;;;5016255;28;20049;-81
2021/09/07 02:46:14;;;;;;;11.38;8.02;;;358.80;2329.60;;;;;;5018142;28;20029;-77
2021/09/07 02:48:40;;;;;;;16.77;7.38;;;384.10;2329.60;;;;;;5015636;28;20060;-82
2021/09/07 02:51:06;;;;;;;14.55;7.60;;;358.60;2329.60;;;;;;5015549;28;20427;-82
2021/09/07 02:53:32;;;;;;;14.88;7.53;;;358.50;2329.60;;;;;;5015200;28;20121;-82
2021/09/07 02:56:10;;;;;;;12.02;7.75;;;333.70;2329.60;;;;;;5015651;28;20129;-81
2021/09/07 02:58:36;;;;;;;13.75;7.82;;;358.40;2329.60;;;;;;5015811;28;20025;-81
2021/09/07 03:01:05;;;;;;;15.77;7.85;;;333.70;2329.60;;;;;;5015620;28;20455;-79
2021/09/07 03:03:33;;;;;;;14.00;7.75;;;358.50;2329.60;;;;;;5015300;28;20030;-81
2021/09/07 03:06:01;;;;;;;13.82;9.02;;;333.70;2329.60;;;;;;5014956;28;20037;-80
2021/09/07 03:08:28;;;;;;;10.05;7.45;;;333.10;2329.60;;;;;;5015180;28;20030;-81
2021/09/07 03:10:54;;;;;;;13.48;7.53;;;333.50;2329.60;;;;;;5015049;28;20052;-81
2021/09/07 03:13:20;;;;;;;12.38;8.23;;;333.50;2329.60;;;;;;5014462;28;20493;-79
2021/09/07 03:15:46;;;;;;;11.60;7.38;;;333.70;2329.60;;;;;;5015187;28;20128;-79
2021/09/07 03:18:13;;;;;;;14.27;7.68;;;333.60;2329.60;;;;;;5015198;28;20030;-78
2021/09/07 03:20:39;;;;;;;12.23;7.65;;;333.70;2329.60;;;;;;5014620;28;20034;-81
2021/09/07 03:23:08;;;;;;;10.25;7.60;;;358.40;2329.60;;;;;;5014628;28;20056;-79
2021/09/07 03:25:37;;;;;;;12.75;8.32;;;358.50;2329.60;;;;;;5014799;28;20087;-80
2021/09/07 03:28:04;;;;;;;11.80;7.82;;;358.50;2329.60;;;;;;5014503;28;20025;-80
2021/09/07 03:30:30;;;;;;;11.98;7.20;;;333.40;2329.60;;;;;;5014531;28;20050;-80
2021/09/07 03:32:56;;;;;;;14.75;7.75;;;333.60;2329.60;;;;;;5014671;28;20029;-78
2021/09/07 03:35:23;;;;;;;13.63;7.85;;;333.20;2329.60;;;;;;4998213;28;20482;-81
2021/09/07 03:37:50;;;;;;;12.77;7.65;;;333.60;2329.60;;;;;;5014619;28;20034;-82
2021/09/07 03:40:16;;;;;;;16.27;8.27;;;333.50;2329.60;;;;;;5014661;28;20040;-81
2021/09/07 03:42:42;;;;;;;15.15;8.20;;;333.50;2329.60;;;;;;5014901;28;20026;-78
2021/09/07 03:45:12;;;;;;;16.55;8.93;;;333.20;2329.60;;;;;;5015943;28;20026;-80
2021/09/07 03:47:39;;;;;;;14.68;8.23;;;333.20;2329.60;;;;;;5014791;28;20052;-81
2021/09/07 03:50:06;;;;;;;14.40;9.00;;;333.10;2329.60;;;;;;5014521;28;20026;-79
2021/09/07 03:52:32;;;;;;;14.98;8.77;;;333.30;2329.60;;;;;;5014307;28;20033;-80
2021/09/07 03:54:58;;;;;;;16.35;8.30;;;333.30;2329.60;;;;;;5014037;28;20036;-80
2021/09/07 03:57:24;;;;;;;14.65;8.20;;;333.00;2329.60;;;;;;5014342;28;20038;-83
2021/09/07 03:59:50;;;;;;;17.35;8.82;;;333.20;2329.60;;;;;;5014225;28;20034;-80
2021/09/07 04:02:20;;;;;;;15.70;8.30;;;333.20;2329.60;;;;;;5017866;28;20026;-78
2021/09/07 04:04:45;;;;;;;12.65;7.57;;;333.20;2329.60;;;;;;5018535;28;20029;-80
2021/09/07 04:07:14;;;;;;;14.60;7.72;;;333.10;2329.60;;;;;;5019122;28;20026;-78
2021/09/07 04:09:41;;;;;;;14.63;8.23;;;333.20;2329.60;;;;;;5019522;28;20113;-79
2021/09/07 04:12:07;;;;;;;13.52;7.70;;;333.20;2329.60;;;;;;5016107;28;20026;-83
2021/09/07 04:14:53;;;;;;;16.55;8.30;;;332.80;2329.60;;;;;;5013946;28;20116;-81
2021/09/07 04:17:30;;;;;;;17.88;10.90;;;332.90;2329.60;;;;;;5013357;28;20529;-82
2021/09/07 04:19:56;;;;;;;23.30;13.30;;;333.00;2329.60;;;;;;5013992;28;20037;-80
2021/09/07 04:22:25;;;;;;;17.85;9.80;;;332.90;2329.60;;;;;;5013609;28;20030;-79
2021/09/07 04:25:12;;;;;;;12.80;8.95;;;333.00;2329.60;;;;;;5014070;28;20048;-80
2021/09/07 04:27:38;;;;;;;24.23;15.10;;;333.00;2329.60;;;;;;5014292;28;20034;-82
2021/09/07 04:30:30;;;;;;;19.42;13.43;;;333.40;2329.60;;;;;;5013343;28;20050;-79
2021/09/07 04:32:58;;;;;;;14.10;9.57;;;333.00;2329.60;;;;;;5014761;28;20531;-79
2021/09/07 04:35:24;;;;;;;15.70;9.45;;;333.00;2329.60;;;;;;5013669;28;20025;-79
2021/09/07 04:37:50;;;;;;;12.40;8.73;;;333.10;2329.60;;;;;;5013381;28;20124;-80
2021/09/07 04:40:16;;;;;;;13.07;8.80;;;308.10;2304.00;;;;;;5013471;28;20068;-78
2021/09/07 04:42:43;;;;;;;16.75;9.05;;;332.80;2329.60;;;;;;5013670;28;20030;-80
2021/09/07 04:45:09;;;;;;;15.90;9.57;;;333.00;2329.60;;;;;;5013146;28;20434;-78
2021/09/07 04:47:35;;;;;;;13.15;7.95;;;308.00;2304.00;;;;;;5013557;28;20026;-79
2021/09/07 04:50:01;;;;;;;13.07;7.78;;;332.80;2329.60;;;;;;5013246;28;20033;-80
2021/09/07 04:52:27;;;;;;;17.52;8.40;;;307.90;2304.00;;;;;;5012957;28;20034;-81
2021/09/07 04:54:55;;;;;;;15.05;8.70;;;307.80;2304.00;;;;;;5013219;28;20116;-80
2021/09/07 04:57:25;;;;;;;13.55;8.43;;;308.00;2304.00;;;;;;5013086;28;20030;-79
2021/09/07 04:59:51;;;;;;;14.43;7.93;;;307.70;2304.00;;;;;;5013616;28;20714;-81
2021/09/07 05:02:16;;;;;;;18.60;9.23;;;307.80;2304.00;;;;;;5013463;28;20049;-79
2021/09/07 05:04:42;;;;;;;19.67;9.48;;;307.80;2304.00;;;;;;5013167;28;20030;-78
2021/09/07 05:07:17;;;;;;;12.77;9.48;;;307.80;2304.00;;;;;;5013324;28;20488;-80
2021/09/07 05:09:43;;;;;;;15.88;9.73;;;308.00;2304.00;;;;;;5013327;28;20036;-79
2021/09/07 05:12:09;;;;;;;21.75;9.93;;;308.00;2304.00;;;;;;5012950;28;20123;-79
2021/09/07 05:14:37;;;;;;;14.68;9.43;;;307.80;2304.00;;;;;;5013088;28;20022;-80
2021/09/07 05:17:04;;;;;;;20.10;9.00;;;308.00;2304.00;;;;;;5012845;28;20389;-79
2021/09/07 05:19:30;;;;;;;19.92;10.18;;;308.10;2304.00;;;;;;5012935;28;20470;-79
2021/09/07 05:21:59;;;;;;;18.90;9.50;;;307.90;2304.00;;;;;;5013283;28;20029;-81
2021/09/07 05:24:31;;;;;;;24.08;10.02;;;308.10;2304.00;;;;;;5013046;28;20052;-79
2021/09/07 05:26:57;;;;;;;20.95;9.65;;;332.80;2329.60;;;;;;5012783;28;20042;-81
2021/09/07 05:29:23;;;;;;;17.10;7.85;;;332.90;2329.60;;;;;;5012772;28;20112;-81
2021/09/07 05:31:49;;;;;;;17.80;9.68;;;332.90;2329.60;;;;;;5013111;28;20042;-79
2021/09/07 05:34:16;;;;;;;15.48;8.27;;;308.10;2304.00;;;;;;5012548;28;20477;-81
2021/09/07 05:36:42;;;;;;;16.42;8.73;;;332.80;2329.60;;;;;;5012666;28;20120;-80
2021/09/07 05:39:09;;;;;;;12.38;8.15;;;332.80;2329.60;;;;;;5012831;28;20478;-78
2021/09/07 05:41:35;;;;;;;14.50;8.10;;;332.90;2329.60;;;;;;5012495;28;20030;-79
2021/09/07 05:44:01;;;;;;;13.80;8.13;;;333.10;2329.60;;;;;;5012739;28;20022;-77
2021/09/07 05:46:27;;;;;;;16.55;7.60;;;333.20;2329.60;;;;;;5012396;28;20038;-81
2021/09/07 05:48:53;;;;;;;14.43;7.63;;;333.00;2329.60;;;;;;5012848;28;20111;-79
2021/09/07 05:51:19;;;;;;;14.93;7.63;;;332.90;2329.60;;;;;;5012760;28;20143;-79
2021/09/07 05:53:51;;;;;;;15.85;8.20;;;333.20;2329.60;;;;;;5012659;28;20037;-77
2021/09/07 05:56:20;;;;;;;14.00;8.18;;;333.20;2329.60;;;;;;5012693;28;20030;-79
2021/09/07 05:58:51;;;;;;;15.10;7.68;;;333.40;2329.60;;;;;;5014160;28;20034;-80
2021/09/07 06:01:18;;;;;;;16.48;8.85;;;333.40;2329.60;;;;;;5014330;28;20030;-82
2021/09/07 06:03:48;;;;;;;16.13;8.82;;;333.40;2329.60;;;;;;5017927;28;20037;-79
2021/09/07 06:06:15;;;;;;;19.88;8.73;;;333.70;2329.60;;;;;;5016520;28;20018;-80
2021/09/07 06:08:41;;;;;;;17.75;8.98;;;358.50;2329.60;;;;;;5015797;28;20420;-80
2021/09/07 06:11:08;;;;;;;15.45;8.45;;;358.50;2329.60;;;;;;5016042;28;20055;-80
2021/09/07 06:13:34;;;;;;;15.85;8.98;;;358.70;2329.60;;;;;;5016267;28;20030;-79
2021/09/07 06:16:01;;;;;;;15.63;9.05;;;358.70;2329.60;;;;;;5016884;28;20053;-80
2021/09/07 06:18:27;;;;;;;14.07;9.32;;;358.70;2329.60;;;;;;5016017;28;20040;-81
2021/09/07 06:20:57;;;;;;;19.75;9.85;;;358.70;2329.60;;;;;;5015549;28;20410;-82
2021/09/07 06:23:23;;;;;;;23.33;9.88;;;358.70;2329.60;;;;;;5015277;28;20041;-78
2021/09/07 06:25:49;;;;;;;14.13;9.23;;;358.80;2329.60;;;;;;5015863;28;20026;-82
2021/09/07 06:28:14;;;;;;;17.92;8.70;;;358.80;2329.60;;;;;;5015650;28;20458;-79
2021/09/07 06:30:40;;;;;;;17.15;9.80;;;358.90;2329.60;;;;;;5015443;28;20049;-80
2021/09/07 06:33:06;;;;;;;16.80;10.27;;;359.00;2329.60;;;;;;5015451;28;20022;-81
2021/09/07 06:35:32;;;;;;;17.95;9.40;;;359.10;2329.60;;;;;;5014943;28;20033;-80
2021/09/07 06:37:58;;;;;;;16.48;10.02;;;359.20;2329.60;;;;;;5015335;28;20081;-80
2021/09/07 06:40:25;;;;;;;18.30;9.95;;;384.00;2329.60;;;;;;5015467;28;20124;-80
2021/09/07 06:42:51;;;;;;;18.00;10.75;;;384.00;2329.60;;;;;;5016475;28;20504;-79
2021/09/07 06:45:17;;;;;;;17.52;9.55;;;384.10;2329.60;;;;;;5015797;28;20124;-82
2021/09/07 06:47:44;;;;;;;15.02;10.50;;;384.30;2329.60;;;;;;5015253;28;20072;-78
2021/09/07 06:50:11;;;;;;;18.02;10.10;;;384.30;2329.60;;;;;;5015321;28;20121;-77
2021/09/07 06:52:37;;;;;;;19.98;10.32;;;384.50;2329.60;;;;;;5015443;28;20036;-80
2021/09/07 06:55:04;;;;;;;15.65;9.60;;;384.60;2329.60;;;;;;5015617;28;20116;-81
2021/09/07 06:57:30;;;;;;;18.45;9.98;;;384.90;2329.60;;;;;;5015167;28;20029;-80
2021/09/07 06:59:56;;;;;;;17.75;9.60;;;384.90;2329.60;;;;;;5015336;28;20080;-82
2021/09/07 07:02:23;;;;;;;18.20;9.80;;;409.70;2355.20;;;;;;5015136;28;20030;-77
2021/09/07 07:04:49;;;;;;;22.15;9.30;;;409.90;2355.20;;;;;;5015055;28;20462;-76
2021/09/07 07:07:15;;;;;;;19.60;9.48;;;410.00;2355.20;;;;;;5015118;28;20032;-79
2021/09/07 07:09:41;;;;;;;16.90;9.00;;;410.20;2355.20;;;;;;5015437;28;20492;-78
2021/09/07 07:12:07;;;;;;;13.45;8.93;;;410.30;2355.20;;;;;;5014659;28;20022;-80
2021/09/07 07:14:33;;;;;;;13.77;8.65;;;410.30;2355.20;;;;;;5016317;28;20033;-78
2021/09/07 07:16:59;;;;;;;17.25;8.73;;;435.20;2355.20;;;;;;5016264;28;20385;-79
2021/09/07 07:19:24;;;;;;;13.73;8.15;;;435.30;2355.20;;;;;;5016007;28;20026;-78
2021/09/07 07:21:50;;;;;;;12.85;7.05;;;435.50;2355.20;;;;;;5014899;28;20033;-82
2021/09/07 07:24:17;;;;;;;13.80;7.50;;;435.60;2355.20;;;;;;5016209;28;20030;-78
2021/09/07 07:26:44;;;;;;;11.45;7.72;;;435.90;2355.20;;;;;;5015097;28;20381;-78
2021/09/07 07:29:12;;;;;;;11.57;7.13;;;436.10;2355.20;;;;;;5015911;28;20053;-78
2021/09/07 07:31:38;;;;;;;13.30;7.25;;;436.10;2355.20;;;;;;5014340;28;20033;-76
2021/09/07 07:34:03;;;;;;;11.48;6.22;;;460.80;2380.80;;;;;;5018200;28;20077;-78
2021/09/07 07:36:29;;;;;;;10.20;6.32;;;461.00;2380.80;;;;;;5017934;28;20034;-77
2021/09/07 07:38:55;;;;;;;11.00;6.40;;;461.10;2380.80;;;;;;5016098;28;20387;-78
2021/09/07 07:41:21;;;;;;;14.18;7.30;;;461.30;2380.80;;;;;;5016374;28;20033;-78
2021/09/07 07:43:47;;;;;;;11.38;7.43;;;461.50;2380.80;;;;;;5016529;28;20474;-76
2021/09/07 07:46:16;;;;;;;12.32;6.40;;;461.70;2380.80;;;;;;5015954;28;20030;-79
2021/09/07 07:48:42;;;;;;;11.15;6.47;;;486.50;2380.80;;;;;;5016048;28;20022;-77
2021/09/07 07:51:09;;;;;;;13.40;7.50;;;486.50;2380.80;;;;;;5016291;28;20057;-78
2021/09/07 07:53:36;;;;;;;14.65;6.65;;;486.60;2380.80;;;;;;5015749;28;20037;-75
2021/09/07 07:56:02;;;;;;;11.65;7.20;;;486.70;2380.80;;;;;;5015095;28;20036;-76
2021/09/07 07:58:28;;;;;;;14.27;6.60;;;486.80;2380.80;;;;;;5016328;28;20037;-77
2021/09/07 08:00:54;;;;;;;10.55;7.25;;;487.00;2380.80;;;;;;5014513;28;20029;-77
2021/09/07 08:03:20;;;;;;;12.75;6.82;;;512.10;2380.80;;;;;;5015602;28;20466;-77
2021/09/07 08:05:46;;;;;;;12.38;5.82;;;487.30;2380.80;;;;;;5014953;28;20022;-78
2021/09/07 08:08:12;;;;;;;8.68;6.25;;;512.10;2380.80;;;;;;5014396;28;20037;-77
2021/09/07 08:10:39;;;;;;;11.00;6.80;;;512.20;2380.80;;;;;;5015500;28;20470;-77
2021/09/07 08:13:05;;;;;;;13.98;6.18;;;512.30;2380.80;;;;;;5015294;28;20057;-77
2021/09/07 08:15:31;;;;;;;8.70;5.35;;;512.50;2380.80;;;;;;5015310;28;20030;-78
2021/09/07 08:17:57;;;;;;;11.20;7.20;;;512.60;2380.80;;;;;;5015492;28;20034;-76
2021/09/07 08:20:23;;;;;;;10.40;6.28;;;512.90;2380.80;;;;;;5014223;28;20045;-76
2021/09/07 08:22:49;;;;;;;9.82;6.18;;;537.60;2406.40;;;;;;5015705;28;20048;-78
2021/09/07 08:25:15;;;;;;;9.40;6.57;;;537.70;2406.40;;;;;;5014362;28;20040;-76
2021/09/07 08:27:41;;;;;;;17.35;8.20;;;537.70;2406.40;;;;;;5014126;28;20025;-78
2021/09/07 08:30:08;;;;;;;10.23;7.78;;;538.00;2406.40;;;;;;5014407;28;20058;-78
2021/09/07 08:32:37;;;;;;;14.07;6.43;;;538.20;2406.40;;;;;;5014856;28;20026;-76
2021/09/07 08:35:03;;;;;;;13.23;6.57;;;538.20;2406.40;;;;;;5014989;28;20037;-79
2021/09/07 08:37:29;;;;;;;11.88;6.13;;;538.20;2406.40;;;;;;5013939;28;20390;-76
2021/09/07 08:39:55;;;;;;;13.73;6.90;;;538.30;2380.80;;;;;;5014082;28;20040;-78
2021/09/07 08:42:20;;;;;;;12.77;10.07;;;538.50;2380.80;;;;;;5015503;28;20054;-78
2021/09/07 08:44:47;;;;;;;9.57;6.43;;;563.30;2380.80;;;;;;5013878;28;20032;-78
2021/09/07 08:47:22;;;;;;;13.50;6.85;;;563.50;2380.80;;;;;;5014375;28;20041;-78
2021/09/07 08:49:48;;;;;;;11.85;7.57;;;563.50;2355.20;;;;;;5015079;28;20033;-78
2021/09/07 08:52:15;;;;;;;13.95;7.82;;;563.70;2329.60;;;;;;5014324;28;20029;-76
2021/09/07 08:54:41;;;;;;;9.07;5.80;;;563.70;2329.60;;;;;;5013920;28;20026;-78
2021/09/07 08:57:07;;;;;;;10.45;5.20;;;563.80;2252.80;;;;;;5013516;28;20038;-80
2021/09/07 08:59:34;;;;;;;10.90;7.15;;;563.80;2227.20;;;;;;5013884;28;20577;-79
2021/09/07 09:02:17;;;;;;;10.10;5.13;;;563.80;2227.20;;;;;;5013435;28;20026;-79
2021/09/07 09:04:48;;;;;;;6.45;4.38;;;563.80;2201.60;;;;;;5013771;28;20028;-79
2021/09/07 09:07:32;;;;;;;10.73;5.55;;;563.90;2201.60;;;;;;5014057;28;20539;-78
2021/09/07 09:09:59;;;;;;;8.00;4.60;;;564.00;2150.40;;;;;;5013671;28;20520;-78
2021/09/07 09:12:39;;;;;;;7.00;4.43;;;564.10;2073.60;;;;;;5013439;28;20464;-78
2021/09/07 09:15:13;;;;;;;9.48;5.75;;;588.80;2073.60;;;;;;5013834;28;20061;-78
2021/09/07 09:17:39;;;;;;;12.45;7.18;;;588.90;2099.20;;;;;;5013329;28;20076;-78
2021/09/07 09:20:18;;;;;;;8.75;6.10;;;589.20;2073.60;;;;;;5013034;28;20038;-80
2021/09/07 09:22:45;;;;;;;6.65;4.72;;;589.40;2022.40;;;;;;5013858;28;20030;-76
2021/09/07 09:25:21;;;;;;;10.70;5.20;;;589.30;1996.80;;;;;;5013290;28;20021;-80
2021/09/07 09:28:06;;;;;;;7.40;4.57;;;589.20;1996.80;;;;;;5013776;28;20038;-77
2021/09/07 09:30:37;;;;;;;10.25;4.68;;;589.30;1996.80;;;;;;5013212;28;20085;-78
2021/09/07 09:33:04;;;;;;;9.75;5.40;;;589.40;1996.80;;;;;;5013357;28;20022;-79
2021/09/07 09:35:30;;;;;;;9.57;4.93;;;589.50;1971.20;;;;;;5013011;28;20076;-80
2021/09/07 09:38:01;;;;;;;9.35;5.95;;;589.60;2048.00;;;;;;5013222;28;20030;-80
2021/09/07 09:40:28;;;;;;;9.93;5.20;;;589.70;2022.40;;;;;;5012879;28;20030;-78
2021/09/07 09:42:56;;;;;;;8.13;4.82;;;614.40;1996.80;;;;;;5012781;28;20026;-78
2021/09/07 09:45:30;;;;;;;8.88;5.32;;;589.60;1996.80;;;;;;5013012;28;20052;-78
2021/09/07 09:47:57;;;;;;;8.98;6.15;;;614.40;1971.20;;;;;;5014236;28;20109;-77
2021/09/07 09:50:25;;;;;;;10.43;5.07;;;614.60;1945.60;;;;;;5014254;28;20088;-78
2021/09/07 09:52:52;;;;;;;10.82;5.25;;;614.80;1945.60;;;;;;5014427;28;20026;-79
2021/09/07 09:55:18;;;;;;;8.57;4.68;;;614.50;1971.20;;;;;;5012933;28;20121;-79
2021/09/07 09:57:45;;;;;;;11.30;5.57;;;614.50;1996.80;;;;;;5013518;28;20038;-78
2021/09/07 10:00:16;;;;;;;12.35;6.70;;;614.40;1971.20;;;;;;5014281;28;20034;-77
2021/09/07 10:02:44;;;;;;;10.35;5.22;;;589.60;2048.00;;;;;;5016313;28;20029;-79
2021/09/07 10:05:11;;;;;;;9.18;4.63;;;589.70;1945.60;;;;;;5012779;28;20026;-80
2021/09/07 10:07:37;;;;;;;9.88;6.68;;;614.70;1971.20;;;;;;5014388;28;20085;-81
2021/09/07 10:10:04;;;;;;;14.25;5.75;;;614.90;1945.60;;;;;;5012807;28;20026;-80
2021/09/07 10:12:42;;;;;;;9.48;5.45;;;615.30;1920.00;;;;;;5013717;28;20042;-80
2021/09/07 10:18:35;;;;;;;9.68;4.55;;;640.30;1817.60;;;;;;5013914;28;20049;-79
2021/09/07 10:22:59;;;;;;;10.32;7.47;;;640.50;1868.80;;;;;;5013229;28;20067;-79
2021/09/07 10:24:15;;;;;;;11.00;8.00;;;640.60;1817.60;;;;;;5013392;28;20038;-80
2021/09/07 10:26:44;;;;;;;10.65;5.68;;;665.60;1817.60;;;;;;5013786;28;20367;-81
2021/09/07 10:29:11;;;;;;;7.68;5.43;;;665.70;1817.60;;;;;;5012421;28;20134;-80
2021/09/07 10:31:49;;;;;;;8.13;4.70;;;665.90;1766.40;;;;;;5013122;28;20242;-79
2021/09/07 10:34:23;;;;;;;6.20;4.38;;;666.20;1766.40;;;;;;5014466;28;20022;-81
2021/09/07 10:37:00;;;;;;;9.27;4.70;;;666.30;1715.20;;;;;;5012483;28;20091;-79
2021/09/07 10:39:46;;;;;;;8.65;4.20;;;666.50;1715.20;;;;;;5012974;28;20037;-79
2021/09/07 10:42:48;;;;;;;8.55;4.68;;;691.30;1638.40;;;;;;5014473;28;20191;-79
2021/09/07 10:45:14;;;;;;;9.03;4.90;;;691.50;1664.00;;;;;;5012278;28;20113;-79
2021/09/07 10:47:42;;;;;;;6.95;4.38;;;691.70;1664.00;;;;;;5015190;28;20065;-78
2021/09/07 10:50:08;;;;;;;10.52;4.88;;;691.90;1638.40;;;;;;5015971;28;20470;-79
2021/09/07 10:52:35;;;;;;;9.88;5.75;;;692.10;1638.40;;;;;;5016978;28;20029;-78
2021/09/07 10:55:06;;;;;;;8.98;6.03;;;716.90;1612.80;;;;;;5015824;28;20504;-78
2021/09/07 10:57:35;;;;;;;9.52;5.15;;;717.20;1587.20;;;;;;5017888;28;20474;-77
2021/09/07 11:00:13;;;;;;;7.85;4.65;;;717.40;1587.20;;;;;;5015251;28;20032;-78
2021/09/07 11:02:48;;;;;;;9.95;6.25;;;717.30;1536.00;;;;;;5015871;28;20116;-77
2021/09/07 11:05:23;;;;;;;9.20;4.38;;;717.40;1561.60;;;;;;5015133;28;20037;-78
2021/09/07 11:07:51;;;;;;;7.88;4.03;;;717.60;1561.60;;;;;;5015489;28;20385;-79
2021/09/07 11:10:17;;;;;;;5.60;3.80;;;742.40;1536.00;;;;;;5015460;28;20026;-78
2021/09/07 11:12:54;;;;;;;6.57;3.65;;;717.70;1536.00;;;;;;5015356;28;20026;-78
2021/09/07 11:15:25;;;;;;;7.47;4.00;;;742.40;1510.40;;;;;;5015578;28;20362;-77
2021/09/07 11:18:03;;;;;;;8.48;4.40;;;742.50;1536.00;;;;;;5015589;28;20393;-78
2021/09/07 11:20:39;;;;;;;7.07;5.25;;;742.60;1510.40;;;;;;5015166;28;20030;-77
2021/09/07 11:23:17;;;;;;;6.05;4.20;;;742.80;1510.40;;;;;;5015358;28;20033;-78
2021/09/07 11:25:45;;;;;;;7.00;4.00;;;743.00;1459.20;;;;;;5015419;28;20120;-77
2021/09/07 11:28:15;;;;;;;6.65;4.50;;;742.80;1484.80;;;;;;5017092;28;20032;-78
2021/09/07 11:30:47;;;;;;;7.53;4.65;;;742.80;1510.40;;;;;;5014955;28;20053;-77
2021/09/07 11:33:16;;;;;;;8.52;4.57;;;742.90;1484.80;;;;;;5015060;28;20044;-78
2021/09/07 11:35:45;;;;;;;7.63;4.70;;;742.80;1459.20;;;;;;5014924;28;20501;-77
2021/09/07 11:38:14;;;;;;;5.13;3.58;;;742.80;1459.20;;;;;;5014672;28;20018;-79
2021/09/07 11:40:48;;;;;;;11.57;4.65;;;742.90;1459.20;;;;;;5014662;28;20022;-77
2021/09/07 11:43:26;;;;;;;7.72;4.88;;;743.10;1459.20;;;;;;5015678;28;20437;-79
2021/09/07 11:46:07;;;;;;;8.02;4.07;;;743.30;1408.00;;;;;;5015433;28;20200;-78
2021/09/07 11:48:33;;;;;;;5.70;4.13;;;742.80;1459.20;;;;;;5015612;28;20454;-78
2021/09/07 11:50:59;;;;;;;7.03;4.30;;;743.00;1459.20;;;;;;5016113;28;20030;-77
2021/09/07 11:53:25;;;;;;;10.55;5.13;;;768.00;1408.00;;;;;;5014868;28;20026;-78
2021/09/07 11:55:55;;;;;;;8.30;4.63;;;768.30;1382.40;;;;;;5014466;28;20391;-77
2021/09/07 11:58:27;;;;;;;4.90;3.70;;;768.60;1382.40;;;;;;5014469;28;20033;-79
2021/09/07 12:01:00;;;;;;;;;;;768.60;1356.80;;;;;;5017180;28;20026;-78
2021/09/07 12:03:42;;;;;;;6.07;3.33;;;768.70;1356.80;;;;;;5047685;28;19996;-79
2021/09/07 12:06:09;;;;;;;8.80;4.55;;;768.40;1331.20;;;;;;5016960;28;20180;-79
2021/09/07 12:08:47;;;;;;;11.07;6.45;;;768.50;1356.80;;;;;;5014273;28;20390;-78
2021/09/07 12:11:31;;;;;;;8.20;4.70;;;768.60;1356.80;;;;;;5015460;28;20022;-76
2021/09/07 12:14:20;;;;;;;8.95;4.15;;;768.90;1382.40;;;;;;5014647;28;20068;-79
2021/09/07 12:17:03;;;;;;;11.27;3.72;;;768.90;1356.80;;;;;;5015792;28;20149;-78
2021/09/07 12:19:29;;;;;;;5.97;3.63;;;793.90;1408.00;;;;;;5014764;28;20030;-78